Walhalla, Michigan
Current Conditions -  °F | °C
As of 3:35 AM on Thursday 27 Nov 2014 (Local Time) from KLDM Reporting Station
Light Snow Light Snow  
Wind Chill: 29°   Ceiling: 2400
Heat Index: 29°   Visibility: 3mi
Dew Point: 27°   Wind: 0mph
Humidity: 90%   Direction: NA
Pressure: 30.16"   Gusts: NA
Location:  43.95°N, 86.11°W
Report Text: KLDM 270835Z AUTO 00000KT 3SM -SN SCT011 BKN024 OVC030 M01/M03 A3016 RMK AO2 T10151029
Loading
Personal Weather Stations






























Interactive Weather Map New forecast layout! Learn more

10-Day Weather Forecast

Advertisements
Track Severe Weather on mobile